sensor_id;sensor_type;location;lat;lon;timestamp;P1;durP1;ratioP1;P2;durP2;ratioP2
52878;SDS011;38747;53.140;6.498;2022-12-11T00:00:18;31.88;;;10.52;;
52878;SDS011;38747;53.140;6.498;2022-12-11T00:02:44;34.57;;;10.97;;
52878;SDS011;38747;53.140;6.498;2022-12-11T00:05:09;29.00;;;10.63;;
52878;SDS011;38747;53.140;6.498;2022-12-11T00:07:35;31.47;;;10.37;;
52878;SDS011;38747;53.140;6.498;2022-12-11T00:10:01;28.77;;;10.00;;
52878;SDS011;38747;53.140;6.498;2022-12-11T00:12:31;26.60;;;9.30;;
52878;SDS011;38747;53.140;6.498;2022-12-11T00:14:56;32.88;;;9.93;;
52878;SDS011;38747;53.140;6.498;2022-12-11T00:17:22;33.73;;;10.80;;
52878;SDS011;38747;53.140;6.498;2022-12-11T00:19:48;30.65;;;10.70;;
52878;SDS011;38747;53.140;6.498;2022-12-11T00:22:13;31.27;;;10.53;;
52878;SDS011;38747;53.140;6.498;2022-12-11T00:24:39;32.90;;;9.98;;
52878;SDS011;38747;53.140;6.498;2022-12-11T00:27:05;35.17;;;10.23;;
52878;SDS011;38747;53.140;6.498;2022-12-11T00:29:30;30.83;;;9.93;;
52878;SDS011;38747;53.140;6.498;2022-12-11T00:31:56;32.25;;;10.10;;
52878;SDS011;38747;53.140;6.498;2022-12-11T00:34:21;30.90;;;10.30;;
52878;SDS011;38747;53.140;6.498;2022-12-11T00:36:47;32.25;;;11.00;;
52878;SDS011;38747;53.140;6.498;2022-12-11T00:39:13;28.70;;;10.30;;
52878;SDS011;38747;53.140;6.498;2022-12-11T00:41:38;32.80;;;10.13;;
52878;SDS011;38747;53.140;6.498;2022-12-11T00:44:04;30.20;;;9.00;;
52878;SDS011;38747;53.140;6.498;2022-12-11T00:46:30;34.47;;;11.55;;
52878;SDS011;38747;53.140;6.498;2022-12-11T00:48:55;29.83;;;9.80;;
52878;SDS011;38747;53.140;6.498;2022-12-11T00:51:21;34.17;;;10.50;;
52878;SDS011;38747;53.140;6.498;2022-12-11T00:53:47;29.13;;;10.00;;
52878;SDS011;38747;53.140;6.498;2022-12-11T00:56:14;36.67;;;10.50;;
52878;SDS011;38747;53.140;6.498;2022-12-11T00:58:41;34.73;;;10.37;;
52878;SDS011;38747;53.140;6.498;2022-12-11T01:01:08;35.33;;;10.27;;
52878;SDS011;38747;53.140;6.498;2022-12-11T01:03:37;35.53;;;10.93;;
52878;SDS011;38747;53.140;6.498;2022-12-11T01:06:02;33.60;;;9.17;;
52878;SDS011;38747;53.140;6.498;2022-12-11T01:08:29;31.55;;;10.73;;
52878;SDS011;38747;53.140;6.498;2022-12-11T01:11:06;37.67;;;10.63;;
52878;SDS011;38747;53.140;6.498;2022-12-11T01:13:33;36.10;;;10.90;;
52878;SDS011;38747;53.140;6.498;2022-12-11T01:15:59;32.90;;;10.77;;
52878;SDS011;38747;53.140;6.498;2022-12-11T01:18:29;39.70;;;11.73;;
52878;SDS011;38747;53.140;6.498;2022-12-11T01:20:55;39.50;;;11.15;;
52878;SDS011;38747;53.140;6.498;2022-12-11T01:23:20;40.10;;;11.83;;
52878;SDS011;38747;53.140;6.498;2022-12-11T01:25:46;37.10;;;11.33;;
52878;SDS011;38747;53.140;6.498;2022-12-11T01:28:11;38.13;;;11.25;;
52878;SDS011;38747;53.140;6.498;2022-12-11T01:30:39;36.33;;;11.50;;
52878;SDS011;38747;53.140;6.498;2022-12-11T01:33:07;41.47;;;12.07;;
52878;SDS011;38747;53.140;6.498;2022-12-11T01:35:33;38.75;;;11.65;;
52878;SDS011;38747;53.140;6.498;2022-12-11T01:37:59;43.47;;;11.73;;
52878;SDS011;38747;53.140;6.498;2022-12-11T01:40:24;44.80;;;12.68;;
52878;SDS011;38747;53.140;6.498;2022-12-11T01:42:50;40.87;;;11.43;;
52878;SDS011;38747;53.140;6.498;2022-12-11T01:48:00;36.78;;;11.98;;
52878;SDS011;38747;53.140;6.498;2022-12-11T01:51:00;38.50;;;10.50;;
52878;SDS011;38747;53.140;6.498;2022-12-11T01:53:36;45.72;;;12.10;;
52878;SDS011;38747;53.140;6.498;2022-12-11T01:56:05;42.60;;;11.70;;
52878;SDS011;38747;53.140;6.498;2022-12-11T01:58:33;41.78;;;10.95;;
52878;SDS011;38747;53.140;6.498;2022-12-11T02:01:05;42.35;;;12.70;;
52878;SDS011;38747;53.140;6.498;2022-12-11T02:03:34;44.10;;;11.67;;
52878;SDS011;38747;53.140;6.498;2022-12-11T02:06:01;36.75;;;12.00;;
52878;SDS011;38747;53.140;6.498;2022-12-11T02:08:26;39.90;;;11.93;;
52878;SDS011;38747;53.140;6.498;2022-12-11T02:10:56;39.20;;;11.97;;
52878;SDS011;38747;53.140;6.498;2022-12-11T02:13:28;43.33;;;12.10;;
52878;SDS011;38747;53.140;6.498;2022-12-11T02:18:54;41.90;;;11.50;;
52878;SDS011;38747;53.140;6.498;2022-12-11T02:21:37;41.42;;;11.38;;
52878;SDS011;38747;53.140;6.498;2022-12-11T02:24:23;34.20;;;11.37;;
52878;SDS011;38747;53.140;6.498;2022-12-11T02:27:00;42.38;;;11.68;;
52878;SDS011;38747;53.140;6.498;2022-12-11T02:29:38;38.78;;;11.48;;
52878;SDS011;38747;53.140;6.498;2022-12-11T02:35:08;38.80;;;11.45;;
52878;SDS011;38747;53.140;6.498;2022-12-11T02:37:51;45.10;;;12.67;;
52878;SDS011;38747;53.140;6.498;2022-12-11T02:40:24;44.67;;;12.52;;
52878;SDS011;38747;53.140;6.498;2022-12-11T02:42:54;41.75;;;12.10;;
52878;SDS011;38747;53.140;6.498;2022-12-11T02:45:21;44.85;;;12.18;;
52878;SDS011;38747;53.140;6.498;2022-12-11T02:47:50;43.75;;;12.05;;
52878;SDS011;38747;53.140;6.498;2022-12-11T02:50:17;43.93;;;11.63;;
52878;SDS011;38747;53.140;6.498;2022-12-11T02:52:45;42.80;;;11.77;;
52878;SDS011;38747;53.140;6.498;2022-12-11T02:55:15;37.55;;;11.07;;
52878;SDS011;38747;53.140;6.498;2022-12-11T02:57:43;42.05;;;11.45;;
52878;SDS011;38747;53.140;6.498;2022-12-11T03:00:12;42.08;;;11.23;;
52878;SDS011;38747;53.140;6.498;2022-12-11T03:02:39;44.03;;;11.77;;
52878;SDS011;38747;53.140;6.498;2022-12-11T03:05:06;41.17;;;11.68;;
52878;SDS011;38747;53.140;6.498;2022-12-11T03:07:33;38.05;;;11.10;;
52878;SDS011;38747;53.140;6.498;2022-12-11T03:10:02;36.85;;;10.70;;
52878;SDS011;38747;53.140;6.498;2022-12-11T03:12:30;37.05;;;11.48;;
52878;SDS011;38747;53.140;6.498;2022-12-11T03:14:59;38.83;;;10.53;;
52878;SDS011;38747;53.140;6.498;2022-12-11T03:17:32;38.42;;;10.10;;
52878;SDS011;38747;53.140;6.498;2022-12-11T03:22:46;38.53;;;11.10;;
52878;SDS011;38747;53.140;6.498;2022-12-11T03:25:19;39.85;;;11.75;;
52878;SDS011;38747;53.140;6.498;2022-12-11T03:27:56;36.63;;;11.03;;
52878;SDS011;38747;53.140;6.498;2022-12-11T03:30:28;35.92;;;10.00;;
52878;SDS011;38747;53.140;6.498;2022-12-11T03:33:41;31.63;;;10.55;;
52878;SDS011;38747;53.140;6.498;2022-12-11T03:35:55;39.53;;;10.85;;
52878;SDS011;38747;53.140;6.498;2022-12-11T03:38:30;38.05;;;11.13;;
52878;SDS011;38747;53.140;6.498;2022-12-11T03:41:10;39.90;;;10.37;;
52878;SDS011;38747;53.140;6.498;2022-12-11T03:43:38;38.88;;;10.45;;
52878;SDS011;38747;53.140;6.498;2022-12-11T03:46:05;38.58;;;10.00;;
52878;SDS011;38747;53.140;6.498;2022-12-11T03:48:34;41.08;;;11.13;;
52878;SDS011;38747;53.140;6.498;2022-12-11T03:51:03;42.10;;;11.10;;
52878;SDS011;38747;53.140;6.498;2022-12-11T03:53:30;34.50;;;10.57;;
52878;SDS011;38747;53.140;6.498;2022-12-11T03:55:58;35.28;;;10.40;;
52878;SDS011;38747;53.140;6.498;2022-12-11T03:58:25;42.00;;;10.32;;
52878;SDS011;38747;53.140;6.498;2022-12-11T04:00:51;35.00;;;10.67;;
52878;SDS011;38747;53.140;6.498;2022-12-11T04:03:17;38.28;;;9.68;;
52878;SDS011;38747;53.140;6.498;2022-12-11T04:05:47;44.10;;;10.70;;
52878;SDS011;38747;53.140;6.498;2022-12-11T04:08:14;39.88;;;10.02;;
52878;SDS011;38747;53.140;6.498;2022-12-11T04:10:40;39.25;;;10.15;;
52878;SDS011;38747;53.140;6.498;2022-12-11T04:13:07;35.40;;;9.93;;
52878;SDS011;38747;53.140;6.498;2022-12-11T04:15:34;38.08;;;11.13;;
52878;SDS011;38747;53.140;6.498;2022-12-11T04:18:00;33.33;;;9.47;;
52878;SDS011;38747;53.140;6.498;2022-12-11T04:20:44;42.10;;;10.20;;
52878;SDS011;38747;53.140;6.498;2022-12-11T04:23:28;39.58;;;10.10;;
52878;SDS011;38747;53.140;6.498;2022-12-11T04:26:13;36.47;;;9.95;;
52878;SDS011;38747;53.140;6.498;2022-12-11T04:28:43;36.22;;;10.48;;
52878;SDS011;38747;53.140;6.498;2022-12-11T04:31:11;36.90;;;10.13;;
52878;SDS011;38747;53.140;6.498;2022-12-11T04:33:39;40.55;;;9.75;;
52878;SDS011;38747;53.140;6.498;2022-12-11T04:36:05;40.47;;;10.40;;
52878;SDS011;38747;53.140;6.498;2022-12-11T04:38:31;33.67;;;9.40;;
52878;SDS011;38747;53.140;6.498;2022-12-11T04:40:58;39.03;;;9.93;;
52878;SDS011;38747;53.140;6.498;2022-12-11T04:43:25;41.67;;;10.55;;
52878;SDS011;38747;53.140;6.498;2022-12-11T04:45:59;42.58;;;9.60;;
52878;SDS011;38747;53.140;6.498;2022-12-11T04:48:35;34.23;;;10.17;;
52878;SDS011;38747;53.140;6.498;2022-12-11T04:51:02;39.92;;;10.88;;
52878;SDS011;38747;53.140;6.498;2022-12-11T04:53:28;42.30;;;10.43;;
52878;SDS011;38747;53.140;6.498;2022-12-11T04:55:54;38.55;;;10.68;;
52878;SDS011;38747;53.140;6.498;2022-12-11T04:58:20;40.57;;;10.20;;
52878;SDS011;38747;53.140;6.498;2022-12-11T05:00:46;39.85;;;10.75;;
52878;SDS011;38747;53.140;6.498;2022-12-11T05:03:11;35.70;;;10.37;;
52878;SDS011;38747;53.140;6.498;2022-12-11T05:05:37;39.50;;;10.27;;
52878;SDS011;38747;53.140;6.498;2022-12-11T05:08:03;34.95;;;10.32;;
52878;SDS011;38747;53.140;6.498;2022-12-11T05:10:29;37.07;;;10.93;;
52878;SDS011;38747;53.140;6.498;2022-12-11T05:12:55;39.53;;;9.65;;
52878;SDS011;38747;53.140;6.498;2022-12-11T05:15:20;39.07;;;11.33;;
52878;SDS011;38747;53.140;6.498;2022-12-11T05:17:46;41.22;;;11.13;;
52878;SDS011;38747;53.140;6.498;2022-12-11T05:20:12;37.70;;;11.43;;
52878;SDS011;38747;53.140;6.498;2022-12-11T05:22:37;36.28;;;10.77;;
52878;SDS011;38747;53.140;6.498;2022-12-11T05:25:03;33.40;;;9.40;;
52878;SDS011;38747;53.140;6.498;2022-12-11T05:27:30;39.75;;;10.77;;
52878;SDS011;38747;53.140;6.498;2022-12-11T05:29:55;34.57;;;10.57;;
52878;SDS011;38747;53.140;6.498;2022-12-11T05:32:21;35.93;;;10.30;;
52878;SDS011;38747;53.140;6.498;2022-12-11T05:34:47;34.17;;;10.73;;
52878;SDS011;38747;53.140;6.498;2022-12-11T05:37:14;37.33;;;10.95;;
52878;SDS011;38747;53.140;6.498;2022-12-11T05:39:40;36.58;;;11.07;;
52878;SDS011;38747;53.140;6.498;2022-12-11T05:42:06;38.33;;;10.20;;
52878;SDS011;38747;53.140;6.498;2022-12-11T05:44:32;34.50;;;10.40;;
52878;SDS011;38747;53.140;6.498;2022-12-11T05:46:57;36.10;;;10.43;;
52878;SDS011;38747;53.140;6.498;2022-12-11T05:49:23;43.03;;;11.27;;
52878;SDS011;38747;53.140;6.498;2022-12-11T05:51:49;39.07;;;10.33;;
52878;SDS011;38747;53.140;6.498;2022-12-11T05:54:14;40.25;;;10.77;;
52878;SDS011;38747;53.140;6.498;2022-12-11T05:56:40;34.97;;;10.60;;
52878;SDS011;38747;53.140;6.498;2022-12-11T05:59:06;36.57;;;10.87;;
52878;SDS011;38747;53.140;6.498;2022-12-11T06:01:34;38.85;;;10.38;;
52878;SDS011;38747;53.140;6.498;2022-12-11T06:04:02;36.22;;;10.07;;
52878;SDS011;38747;53.140;6.498;2022-12-11T06:06:29;37.23;;;9.83;;
52878;SDS011;38747;53.140;6.498;2022-12-11T06:08:55;32.95;;;9.65;;
52878;SDS011;38747;53.140;6.498;2022-12-11T06:11:21;39.78;;;10.57;;
52878;SDS011;38747;53.140;6.498;2022-12-11T06:13:48;37.37;;;10.80;;
52878;SDS011;38747;53.140;6.498;2022-12-11T06:16:14;36.13;;;9.98;;
52878;SDS011;38747;53.140;6.498;2022-12-11T06:18:40;34.20;;;11.10;;
52878;SDS011;38747;53.140;6.498;2022-12-11T06:21:14;36.28;;;10.68;;
52878;SDS011;38747;53.140;6.498;2022-12-11T06:23:42;38.70;;;10.73;;
52878;SDS011;38747;53.140;6.498;2022-12-11T06:26:09;37.17;;;10.73;;
52878;SDS011;38747;53.140;6.498;2022-12-11T06:28:35;41.13;;;10.80;;
52878;SDS011;38747;53.140;6.498;2022-12-11T06:31:01;41.67;;;10.38;;
52878;SDS011;38747;53.140;6.498;2022-12-11T06:33:27;39.37;;;10.40;;
52878;SDS011;38747;53.140;6.498;2022-12-11T06:35:53;36.03;;;10.77;;
52878;SDS011;38747;53.140;6.498;2022-12-11T06:38:18;42.45;;;10.77;;
52878;SDS011;38747;53.140;6.498;2022-12-11T06:40:44;41.43;;;12.03;;
52878;SDS011;38747;53.140;6.498;2022-12-11T06:43:18;33.00;;;11.15;;
52878;SDS011;38747;53.140;6.498;2022-12-11T06:45:43;38.23;;;11.53;;
52878;SDS011;38747;53.140;6.498;2022-12-11T06:48:09;38.58;;;11.18;;
52878;SDS011;38747;53.140;6.498;2022-12-11T06:50:36;40.97;;;10.47;;
52878;SDS011;38747;53.140;6.498;2022-12-11T06:53:02;40.65;;;10.50;;
52878;SDS011;38747;53.140;6.498;2022-12-11T06:55:28;33.97;;;10.43;;
52878;SDS011;38747;53.140;6.498;2022-12-11T06:57:53;41.83;;;10.48;;
52878;SDS011;38747;53.140;6.498;2022-12-11T07:00:19;36.47;;;9.73;;
52878;SDS011;38747;53.140;6.498;2022-12-11T07:02:45;35.13;;;10.00;;
52878;SDS011;38747;53.140;6.498;2022-12-11T07:05:10;32.40;;;9.63;;
52878;SDS011;38747;53.140;6.498;2022-12-11T07:07:36;35.17;;;9.77;;
52878;SDS011;38747;53.140;6.498;2022-12-11T07:10:02;34.73;;;10.40;;
52878;SDS011;38747;53.140;6.498;2022-12-11T07:12:28;35.28;;;9.43;;
52878;SDS011;38747;53.140;6.498;2022-12-11T07:14:54;36.23;;;10.47;;
52878;SDS011;38747;53.140;6.498;2022-12-11T07:17:19;38.33;;;10.63;;
52878;SDS011;38747;53.140;6.498;2022-12-11T07:19:45;35.13;;;9.20;;
52878;SDS011;38747;53.140;6.498;2022-12-11T07:22:10;34.60;;;9.93;;
52878;SDS011;38747;53.140;6.498;2022-12-11T07:24:36;38.47;;;9.48;;
52878;SDS011;38747;53.140;6.498;2022-12-11T07:27:02;36.53;;;9.43;;
52878;SDS011;38747;53.140;6.498;2022-12-11T07:29:28;38.58;;;9.82;;
52878;SDS011;38747;53.140;6.498;2022-12-11T07:31:56;42.80;;;9.47;;
52878;SDS011;38747;53.140;6.498;2022-12-11T07:34:22;32.45;;;9.27;;
52878;SDS011;38747;53.140;6.498;2022-12-11T07:36:48;32.53;;;10.10;;
52878;SDS011;38747;53.140;6.498;2022-12-11T07:39:13;37.07;;;9.53;;
52878;SDS011;38747;53.140;6.498;2022-12-11T07:41:40;36.13;;;10.10;;
52878;SDS011;38747;53.140;6.498;2022-12-11T07:44:05;32.90;;;9.80;;
52878;SDS011;38747;53.140;6.498;2022-12-11T07:46:31;39.85;;;10.20;;
52878;SDS011;38747;53.140;6.498;2022-12-11T07:48:58;36.65;;;10.35;;
52878;SDS011;38747;53.140;6.498;2022-12-11T07:51:29;38.93;;;9.93;;
52878;SDS011;38747;53.140;6.498;2022-12-11T07:53:56;38.78;;;10.95;;
52878;SDS011;38747;53.140;6.498;2022-12-11T07:56:27;41.35;;;10.52;;
52878;SDS011;38747;53.140;6.498;2022-12-11T07:58:53;37.15;;;10.90;;
52878;SDS011;38747;53.140;6.498;2022-12-11T08:01:23;35.50;;;10.07;;
52878;SDS011;38747;53.140;6.498;2022-12-11T08:03:51;37.95;;;10.65;;
52878;SDS011;38747;53.140;6.498;2022-12-11T08:06:17;38.75;;;9.88;;
52878;SDS011;38747;53.140;6.498;2022-12-11T08:08:45;40.88;;;9.93;;
52878;SDS011;38747;53.140;6.498;2022-12-11T08:11:12;33.53;;;10.13;;
52878;SDS011;38747;53.140;6.498;2022-12-11T08:13:38;43.92;;;11.23;;
52878;SDS011;38747;53.140;6.498;2022-12-11T08:16:06;38.30;;;11.65;;
52878;SDS011;38747;53.140;6.498;2022-12-11T08:18:34;43.85;;;11.38;;
52878;SDS011;38747;53.140;6.498;2022-12-11T08:21:10;37.40;;;10.80;;
52878;SDS011;38747;53.140;6.498;2022-12-11T08:23:38;36.60;;;10.13;;
52878;SDS011;38747;53.140;6.498;2022-12-11T08:26:04;40.17;;;11.18;;
52878;SDS011;38747;53.140;6.498;2022-12-11T08:28:31;43.85;;;11.15;;
52878;SDS011;38747;53.140;6.498;2022-12-11T08:30:57;39.03;;;10.85;;
52878;SDS011;38747;53.140;6.498;2022-12-11T08:33:23;41.40;;;11.23;;
52878;SDS011;38747;53.140;6.498;2022-12-11T08:35:49;39.17;;;11.30;;
52878;SDS011;38747;53.140;6.498;2022-12-11T08:38:15;41.17;;;11.77;;
52878;SDS011;38747;53.140;6.498;2022-12-11T08:40:41;41.87;;;11.23;;
52878;SDS011;38747;53.140;6.498;2022-12-11T08:43:06;39.03;;;11.68;;
52878;SDS011;38747;53.140;6.498;2022-12-11T08:45:32;44.03;;;12.17;;
52878;SDS011;38747;53.140;6.498;2022-12-11T08:47:58;40.90;;;11.75;;
52878;SDS011;38747;53.140;6.498;2022-12-11T08:50:24;38.77;;;11.40;;
52878;SDS011;38747;53.140;6.498;2022-12-11T08:52:50;39.83;;;10.90;;
52878;SDS011;38747;53.140;6.498;2022-12-11T08:55:17;36.28;;;11.70;;
52878;SDS011;38747;53.140;6.498;2022-12-11T08:57:43;38.95;;;10.45;;
52878;SDS011;38747;53.140;6.498;2022-12-11T09:00:10;36.73;;;11.40;;
52878;SDS011;38747;53.140;6.498;2022-12-11T09:02:36;37.45;;;10.82;;
52878;SDS011;38747;53.140;6.498;2022-12-11T09:05:02;40.33;;;11.43;;
52878;SDS011;38747;53.140;6.498;2022-12-11T09:07:32;45.15;;;12.20;;
52878;SDS011;38747;53.140;6.498;2022-12-11T09:09:58;38.90;;;11.15;;
52878;SDS011;38747;53.140;6.498;2022-12-11T09:12:24;39.05;;;11.65;;
52878;SDS011;38747;53.140;6.498;2022-12-11T09:14:49;41.40;;;11.47;;
52878;SDS011;38747;53.140;6.498;2022-12-11T09:17:15;42.47;;;10.77;;
52878;SDS011;38747;53.140;6.498;2022-12-11T09:19:41;38.30;;;11.57;;
52878;SDS011;38747;53.140;6.498;2022-12-11T09:22:06;38.65;;;12.02;;
52878;SDS011;38747;53.140;6.498;2022-12-11T09:24:35;43.90;;;12.03;;
52878;SDS011;38747;53.140;6.498;2022-12-11T09:27:01;41.03;;;10.82;;
52878;SDS011;38747;53.140;6.498;2022-12-11T09:29:27;40.53;;;11.10;;
52878;SDS011;38747;53.140;6.498;2022-12-11T09:31:53;37.17;;;11.10;;
52878;SDS011;38747;53.140;6.498;2022-12-11T09:34:19;37.10;;;11.10;;
52878;SDS011;38747;53.140;6.498;2022-12-11T09:36:45;46.80;;;11.80;;
52878;SDS011;38747;53.140;6.498;2022-12-11T09:39:11;48.33;;;12.80;;
52878;SDS011;38747;53.140;6.498;2022-12-11T09:46:59;46.05;;;11.30;;
52878;SDS011;38747;53.140;6.498;2022-12-11T09:49:27;44.00;;;11.63;;
52878;SDS011;38747;53.140;6.498;2022-12-11T09:52:07;42.37;;;11.87;;
52878;SDS011;38747;53.140;6.498;2022-12-11T09:55:00;45.42;;;11.63;;
52878;SDS011;38747;53.140;6.498;2022-12-11T09:57:52;46.92;;;11.93;;
52878;SDS011;38747;53.140;6.498;2022-12-11T10:00:25;37.80;;;10.95;;
52878;SDS011;38747;53.140;6.498;2022-12-11T10:05:52;43.23;;;12.23;;
52878;SDS011;38747;53.140;6.498;2022-12-11T10:08:33;49.75;;;11.80;;
52878;SDS011;38747;53.140;6.498;2022-12-11T10:13:33;41.78;;;12.43;;
52878;SDS011;38747;53.140;6.498;2022-12-11T10:16:34;39.95;;;11.63;;
52878;SDS011;38747;53.140;6.498;2022-12-11T10:19:17;41.80;;;12.13;;
52878;SDS011;38747;53.140;6.498;2022-12-11T10:21:50;43.53;;;12.77;;
52878;SDS011;38747;53.140;6.498;2022-12-11T10:24:39;40.78;;;13.48;;
52878;SDS011;38747;53.140;6.498;2022-12-11T10:27:21;46.03;;;13.65;;
52878;SDS011;38747;53.140;6.498;2022-12-11T10:30:00;39.90;;;12.38;;
52878;SDS011;38747;53.140;6.498;2022-12-11T10:32:48;41.03;;;12.37;;
52878;SDS011;38747;53.140;6.498;2022-12-11T10:35:56;43.40;;;12.65;;
52878;SDS011;38747;53.140;6.498;2022-12-11T10:38:32;43.67;;;12.18;;
52878;SDS011;38747;53.140;6.498;2022-12-11T10:46:02;40.43;;;11.23;;
52878;SDS011;38747;53.140;6.498;2022-12-11T10:48:29;45.55;;;12.43;;
52878;SDS011;38747;53.140;6.498;2022-12-11T10:50:59;40.88;;;13.18;;
52878;SDS011;38747;53.140;6.498;2022-12-11T10:53:29;36.83;;;11.33;;
52878;SDS011;38747;53.140;6.498;2022-12-11T10:55:56;45.92;;;12.73;;
52878;SDS011;38747;53.140;6.498;2022-12-11T10:58:25;46.78;;;13.23;;
52878;SDS011;38747;53.140;6.498;2022-12-11T11:03:29;40.75;;;12.45;;
52878;SDS011;38747;53.140;6.498;2022-12-11T11:06:01;43.77;;;12.53;;
52878;SDS011;38747;53.140;6.498;2022-12-11T11:08:36;41.78;;;12.30;;
52878;SDS011;38747;53.140;6.498;2022-12-11T11:11:04;44.30;;;12.38;;
52878;SDS011;38747;53.140;6.498;2022-12-11T11:13:30;43.57;;;11.23;;
52878;SDS011;38747;53.140;6.498;2022-12-11T11:16:05;41.55;;;12.30;;
52878;SDS011;38747;53.140;6.498;2022-12-11T11:18:36;44.22;;;12.95;;
52878;SDS011;38747;53.140;6.498;2022-12-11T11:21:03;46.20;;;12.50;;
52878;SDS011;38747;53.140;6.498;2022-12-11T11:23:29;41.67;;;13.10;;
52878;SDS011;38747;53.140;6.498;2022-12-11T11:25:56;43.50;;;12.80;;
52878;SDS011;38747;53.140;6.498;2022-12-11T11:28:28;42.80;;;11.65;;
52878;SDS011;38747;53.140;6.498;2022-12-11T11:31:03;42.22;;;12.45;;
52878;SDS011;38747;53.140;6.498;2022-12-11T11:33:30;47.10;;;12.60;;
52878;SDS011;38747;53.140;6.498;2022-12-11T11:35:58;42.93;;;12.43;;
52878;SDS011;38747;53.140;6.498;2022-12-11T11:38:34;37.20;;;11.35;;
52878;SDS011;38747;53.140;6.498;2022-12-11T11:41:12;42.72;;;13.10;;
52878;SDS011;38747;53.140;6.498;2022-12-11T11:43:53;39.72;;;11.70;;
52878;SDS011;38747;53.140;6.498;2022-12-11T11:46:26;41.75;;;13.23;;
52878;SDS011;38747;53.140;6.498;2022-12-11T11:51:57;43.35;;;13.18;;
52878;SDS011;38747;53.140;6.498;2022-12-11T11:54:32;39.55;;;12.70;;
52878;SDS011;38747;53.140;6.498;2022-12-11T11:57:17;43.65;;;13.10;;
52878;SDS011;38747;53.140;6.498;2022-12-11T11:59:57;40.15;;;12.35;;
52878;SDS011;38747;53.140;6.498;2022-12-11T12:02:33;44.73;;;13.37;;
52878;SDS011;38747;53.140;6.498;2022-12-11T12:04:59;45.67;;;13.70;;
52878;SDS011;38747;53.140;6.498;2022-12-11T12:13:05;44.15;;;12.98;;
52878;SDS011;38747;53.140;6.498;2022-12-11T12:15:47;42.13;;;14.47;;
52878;SDS011;38747;53.140;6.498;2022-12-11T12:18:34;44.40;;;12.77;;
52878;SDS011;38747;53.140;6.498;2022-12-11T12:26:43;42.63;;;12.90;;
52878;SDS011;38747;53.140;6.498;2022-12-11T12:32:12;41.88;;;12.80;;
52878;SDS011;38747;53.140;6.498;2022-12-11T12:37:57;41.53;;;12.48;;
52878;SDS011;38747;53.140;6.498;2022-12-11T12:48:39;40.53;;;12.85;;
52878;SDS011;38747;53.140;6.498;2022-12-11T12:51:05;45.47;;;13.23;;
52878;SDS011;38747;53.140;6.498;2022-12-11T12:53:32;47.58;;;14.93;;
52878;SDS011;38747;53.140;6.498;2022-12-11T12:56:00;41.20;;;12.95;;
52878;SDS011;38747;53.140;6.498;2022-12-11T12:58:29;42.42;;;12.70;;
52878;SDS011;38747;53.140;6.498;2022-12-11T13:03:47;41.67;;;12.50;;
52878;SDS011;38747;53.140;6.498;2022-12-11T13:08:54;33.55;;;11.68;;
52878;SDS011;38747;53.140;6.498;2022-12-11T13:11:20;43.40;;;13.07;;
52878;SDS011;38747;53.140;6.498;2022-12-11T13:17:03;40.93;;;12.23;;
52878;SDS011;38747;53.140;6.498;2022-12-11T13:19:44;39.97;;;12.63;;
52878;SDS011;38747;53.140;6.498;2022-12-11T13:24:44;40.35;;;13.20;;
52878;SDS011;38747;53.140;6.498;2022-12-11T13:27:25;41.15;;;12.70;;
52878;SDS011;38747;53.140;6.498;2022-12-11T13:32:32;43.60;;;12.25;;
52878;SDS011;38747;53.140;6.498;2022-12-11T13:34:58;42.60;;;12.85;;
52878;SDS011;38747;53.140;6.498;2022-12-11T13:37:30;41.05;;;12.27;;
52878;SDS011;38747;53.140;6.498;2022-12-11T13:40:00;42.63;;;14.02;;
52878;SDS011;38747;53.140;6.498;2022-12-11T13:42:41;43.80;;;13.77;;
52878;SDS011;38747;53.140;6.498;2022-12-11T13:47:53;41.60;;;13.02;;
52878;SDS011;38747;53.140;6.498;2022-12-11T13:50:25;42.17;;;13.48;;
52878;SDS011;38747;53.140;6.498;2022-12-11T13:52:57;42.55;;;12.82;;
52878;SDS011;38747;53.140;6.498;2022-12-11T13:55:25;43.37;;;14.43;;
52878;SDS011;38747;53.140;6.498;2022-12-11T13:57:54;39.08;;;12.65;;
52878;SDS011;38747;53.140;6.498;2022-12-11T14:00:21;38.55;;;12.68;;
52878;SDS011;38747;53.140;6.498;2022-12-11T14:02:49;40.38;;;12.80;;
52878;SDS011;38747;53.140;6.498;2022-12-11T14:05:16;38.30;;;13.00;;
52878;SDS011;38747;53.140;6.498;2022-12-11T14:08:02;42.93;;;12.97;;
52878;SDS011;38747;53.140;6.498;2022-12-11T14:10:32;44.53;;;14.05;;
52878;SDS011;38747;53.140;6.498;2022-12-11T14:13:09;48.15;;;15.20;;
52878;SDS011;38747;53.140;6.498;2022-12-11T14:15:45;43.28;;;14.02;;
52878;SDS011;38747;53.140;6.498;2022-12-11T14:18:13;42.87;;;13.70;;
52878;SDS011;38747;53.140;6.498;2022-12-11T14:20:51;48.45;;;18.13;;
52878;SDS011;38747;53.140;6.498;2022-12-11T14:23:20;49.00;;;16.05;;
52878;SDS011;38747;53.140;6.498;2022-12-11T14:25:51;44.97;;;15.93;;
52878;SDS011;38747;53.140;6.498;2022-12-11T14:28:21;48.67;;;17.63;;
52878;SDS011;38747;53.140;6.498;2022-12-11T14:30:51;49.33;;;16.75;;
52878;SDS011;38747;53.140;6.498;2022-12-11T14:33:20;42.60;;;16.20;;
52878;SDS011;38747;53.140;6.498;2022-12-11T14:35:49;51.92;;;17.27;;
52878;SDS011;38747;53.140;6.498;2022-12-11T14:38:22;44.28;;;16.48;;
52878;SDS011;38747;53.140;6.498;2022-12-11T14:40:54;47.63;;;14.90;;
52878;SDS011;38747;53.140;6.498;2022-12-11T14:43:33;50.67;;;15.88;;
52878;SDS011;38747;53.140;6.498;2022-12-11T14:46:03;44.35;;;14.38;;
52878;SDS011;38747;53.140;6.498;2022-12-11T14:48:36;43.50;;;14.48;;
52878;SDS011;38747;53.140;6.498;2022-12-11T14:51:12;50.30;;;16.55;;
52878;SDS011;38747;53.140;6.498;2022-12-11T14:53:42;47.37;;;15.50;;
52878;SDS011;38747;53.140;6.498;2022-12-11T14:56:19;45.80;;;15.63;;
52878;SDS011;38747;53.140;6.498;2022-12-11T14:59:02;42.25;;;13.23;;
52878;SDS011;38747;53.140;6.498;2022-12-11T15:01:31;51.60;;;14.93;;
52878;SDS011;38747;53.140;6.498;2022-12-11T15:04:06;48.08;;;17.27;;
52878;SDS011;38747;53.140;6.498;2022-12-11T15:06:48;43.83;;;14.77;;
52878;SDS011;38747;53.140;6.498;2022-12-11T15:09:28;40.63;;;14.20;;
52878;SDS011;38747;53.140;6.498;2022-12-11T15:12:15;42.17;;;14.40;;
52878;SDS011;38747;53.140;6.498;2022-12-11T15:14:49;46.47;;;14.15;;
52878;SDS011;38747;53.140;6.498;2022-12-11T15:17:17;40.00;;;13.43;;
52878;SDS011;38747;53.140;6.498;2022-12-11T15:19:48;41.33;;;13.07;;
52878;SDS011;38747;53.140;6.498;2022-12-11T15:22:17;39.47;;;11.73;;
52878;SDS011;38747;53.140;6.498;2022-12-11T15:24:48;42.50;;;13.27;;
52878;SDS011;38747;53.140;6.498;2022-12-11T15:27:24;39.28;;;12.63;;
52878;SDS011;38747;53.140;6.498;2022-12-11T15:29:55;39.50;;;12.90;;
52878;SDS011;38747;53.140;6.498;2022-12-11T15:32:21;40.67;;;13.83;;
52878;SDS011;38747;53.140;6.498;2022-12-11T15:34:52;43.58;;;14.00;;
52878;SDS011;38747;53.140;6.498;2022-12-11T15:37:26;45.53;;;13.27;;
52878;SDS011;38747;53.140;6.498;2022-12-11T15:39:54;40.83;;;13.07;;
52878;SDS011;38747;53.140;6.498;2022-12-11T15:42:31;38.03;;;13.00;;
52878;SDS011;38747;53.140;6.498;2022-12-11T15:44:59;39.22;;;13.32;;
52878;SDS011;38747;53.140;6.498;2022-12-11T15:47:27;45.58;;;14.60;;
52878;SDS011;38747;53.140;6.498;2022-12-11T15:49:56;42.65;;;13.30;;
52878;SDS011;38747;53.140;6.498;2022-12-11T15:52:23;40.00;;;13.77;;